Capitan Corbeta, Uruguay

7:01 AM UYST on October 23, 2014 (GMT -0200)
punta del este | Change Station
CLOSE
Current Station
Personal Weather Station
Location: Punta Del Este, DEPARTAMENTO DE MALDONADO
Elevation: 30 ft
Nearby Weather Stations

Elev 30 ft 34.96 °S, 54.94 °W | Updated 16 seconds ago

Clear
Clear
69.8 °F
Feels Like 69.8 °F
N
8.9
Wind Variable Wind from SW
Gusts 12.3 mph

Today
High -- | Low -- °F
--% Chance of Precip.
Yesterday
High -- | Low -- °F
Precip. -- in
6:48 AM 8:01 PM
Waning Crescent, 0% visible
Pressure 30.01 in
Visibility -9999.0 miles
Clouds
Dew Point 48 °F
Humidity 45%
Rainfall 0.00 in
Snow Depth Not available.
UV 0.0 out of 12
Pollen Not available.
Air Quality Not available.
Flu Activity Not available.
METAR SUMU 230900Z 00000KT CAVOK 15/12 Q1016 NOSIG

More Conditions Fewer Conditions

Pressure 30.01 in
Visibility -9999.0 miles
Clouds
Dew Point 48 °F
Humidity 45%
Rainfall 0.00 in
Snow Depth Not available.
UV 0.0 out of 12
Pollen Not available.
Air Quality Not available.
Flu Activity Not available.
METAR SUMU 230900Z 00000KT CAVOK 15/12 Q1016 NOSIG

More Conditions Fewer Conditions

10-Day Weather Forecast

Almanac

Astronomy

Oct. 23, 2014 Rise Set
Actual Time 6:48 AM UYST 8:01 PM UYST
Civil Twilight 6:21 AM UYST 8:28 PM UYST
Nautical Twilight 5:50 AM UYST 8:59 PM UYST
Astronomical Twilight 5:18 AM UYST 9:32 PM UYST
Moon 6:36 AM UYST 7:55 PM UYST
Length of Visible Light 14h 06m
Length of Day
13h 13m
Tomorrow will be 2m 4s longer.
Waning Crescent, 0% of the Moon is Illuminated
Today
Waning Crescent
Oct 23
New
Oct 30
First Quarter
Nov 6
Full
Nov 14
Last Quarter

Yesterday's Extremes

Country Highs Country Lows

Community

WunderPhotos

Upload Photos

1,764,198 photos uploaded!

Nearby

Snow Depth

Not available.

Earthquake Activity

City Distance Mag. Time & Date
No recent earthquake activity has been reported nearby.
Minimum magnitude displayed is 2.5.

Coastal Water Temperatures

Place Temperature
No Stations Reporting

Nearby Weather Stations